Time;durP1;ratioP1;P1;durP2;ratioP2;P2;SDS_P1;SDS_P2;PMS_P1;PMS_P2;Temp;Humidity;BMP_temperature;BMP_pressure;BME280_temperature;BME280_humidity;BME280_pressure;Samples;Min_cycle;Max_cycle;Signal;HPM_P1;HPM_P2
2021/09/23 00:00:30;;;;;;;9.55;6.75;;;12.10;99.90;;;;;;5092611;28;20031;-46
2021/09/23 00:05:27;;;;;;;11.30;6.45;;;12.10;99.90;;;;;;5111032;28;20020;-45
2021/09/23 00:07:55;;;;;;;11.85;6.80;;;12.00;99.90;;;;;;5110803;28;20494;-47
2021/09/23 00:10:27;;;;;;;14.07;6.38;;;12.00;99.90;;;;;;5110985;28;20028;-45
2021/09/23 00:12:53;;;;;;;8.18;6.15;;;11.90;99.90;;;;;;5110649;28;20450;-45
2021/09/23 00:15:20;;;;;;;7.82;6.15;;;11.90;99.90;;;;;;5111049;28;20038;-45
2021/09/23 00:17:48;;;;;;;10.45;6.30;;;11.90;99.90;;;;;;5110539;28;20027;-46
2021/09/23 00:20:19;;;;;;;17.02;5.78;;;11.90;99.90;;;;;;5110823;28;20026;-45
2021/09/23 00:22:45;;;;;;;11.40;5.35;;;11.80;99.90;;;;;;5110620;28;20119;-48
2021/09/23 00:25:12;;;;;;;6.68;5.35;;;11.80;99.90;;;;;;5110714;28;20051;-48
2021/09/23 00:27:38;;;;;;;5.90;5.20;;;11.70;99.90;;;;;;5110556;28;20107;-47
2021/09/23 00:30:05;;;;;;;10.43;5.47;;;11.70;99.90;;;;;;5110855;28;20102;-46
2021/09/23 00:32:30;;;;;;;9.70;4.88;;;11.60;99.90;;;;;;5110720;28;20027;-46
2021/09/23 00:34:56;;;;;;;8.85;5.68;;;11.60;99.90;;;;;;5110947;28;20487;-45
2021/09/23 00:37:21;;;;;;;8.23;5.65;;;11.50;99.90;;;;;;5111001;28;20043;-45
2021/09/23 00:39:47;;;;;;;11.52;5.25;;;11.50;99.90;;;;;;5115279;28;20038;-46
2021/09/23 00:42:12;;;;;;;11.02;6.40;;;11.50;99.90;;;;;;5096041;28;20392;-45
2021/09/23 00:44:39;;;;;;;8.07;5.30;;;11.50;99.90;;;;;;5096341;28;20031;-45
2021/09/23 00:47:05;;;;;;;8.00;6.20;;;11.40;99.90;;;;;;5096181;28;20497;-45
2021/09/23 00:49:30;;;;;;;9.38;5.88;;;11.40;99.90;;;;;;5114272;28;20028;-45
2021/09/23 00:51:56;;;;;;;10.00;5.75;;;11.30;99.90;;;;;;5114316;28;20416;-45
2021/09/23 00:54:21;;;;;;;8.95;5.60;;;11.30;99.90;;;;;;5114192;28;20106;-45
2021/09/23 00:56:47;;;;;;;5.40;4.88;;;11.30;99.90;;;;;;5114215;28;20024;-46
2021/09/23 00:59:12;;;;;;;7.32;5.30;;;11.30;99.90;;;;;;5113842;28;20089;-45
2021/09/23 01:01:45;;;;;;;9.10;5.57;;;11.30;99.90;;;;;;5114144;28;20503;-46
2021/09/23 01:04:10;;;;;;;7.93;4.90;;;11.30;99.90;;;;;;5113987;28;20028;-45
2021/09/23 01:06:36;;;;;;;6.88;4.57;;;11.30;99.90;;;;;;5114044;28;20393;-45
2021/09/23 01:09:02;;;;;;;6.72;5.47;;;11.20;99.90;;;;;;5113705;28;20026;-46
2021/09/23 01:11:29;;;;;;;6.57;4.82;;;11.20;99.90;;;;;;5113973;28;20120;-45
2021/09/23 01:13:55;;;;;;;8.90;4.75;;;11.20;99.90;;;;;;5113801;28;20020;-45
2021/09/23 01:16:21;;;;;;;9.95;5.55;;;11.20;99.90;;;;;;5114134;28;20525;-45
2021/09/23 01:18:47;;;;;;;5.85;4.78;;;11.10;99.90;;;;;;5113852;28;20031;-45
2021/09/23 01:21:13;;;;;;;5.78;5.10;;;11.10;99.90;;;;;;5115022;28;20032;-48
2021/09/23 01:23:44;;;;;;;7.32;5.05;;;11.10;99.90;;;;;;5113570;28;20034;-46
2021/09/23 01:26:16;;;;;;;11.15;4.78;;;11.10;99.90;;;;;;5113679;28;20106;-47
2021/09/23 01:28:42;;;;;;;6.05;4.55;;;11.10;99.90;;;;;;5113628;28;20673;-48
2021/09/23 01:31:09;;;;;;;6.95;5.00;;;11.10;99.90;;;;;;5095234;28;20020;-46
2021/09/23 01:33:37;;;;;;;8.60;6.13;;;11.10;99.90;;;;;;5113591;28;20035;-48
2021/09/23 01:36:03;;;;;;;11.18;6.32;;;11.10;99.90;;;;;;5114097;28;20468;-45
2021/09/23 01:38:29;;;;;;;5.75;5.22;;;11.10;99.90;;;;;;5113279;28;20051;-45
2021/09/23 01:40:56;;;;;;;11.52;7.05;;;11.10;99.90;;;;;;5113410;28;20027;-45
2021/09/23 01:43:22;;;;;;;9.05;6.50;;;11.10;99.90;;;;;;5113513;28;20031;-45
2021/09/23 01:45:48;;;;;;;11.15;5.70;;;11.10;99.90;;;;;;5113803;28;20102;-45
2021/09/23 01:48:14;;;;;;;9.45;5.35;;;11.10;99.90;;;;;;5113279;28;20234;-46
2021/09/23 01:50:40;;;;;;;7.65;5.80;;;11.10;99.90;;;;;;5113593;28;20028;-49
2021/09/23 01:53:05;;;;;;;10.18;5.63;;;11.10;99.90;;;;;;5113693;28;20028;-50
2021/09/23 01:55:31;;;;;;;7.45;5.07;;;11.10;99.90;;;;;;5113460;28;20024;-49
2021/09/23 01:57:57;;;;;;;5.72;4.93;;;11.10;99.90;;;;;;5113149;28;20020;-47
2021/09/23 02:00:22;;;;;;;11.40;5.25;;;11.00;99.90;;;;;;5113299;28;20031;-47
2021/09/23 02:02:50;;;;;;;5.28;4.78;;;11.00;99.90;;;;;;5113203;28;20073;-45
2021/09/23 02:05:15;;;;;;;7.75;5.20;;;10.90;99.90;;;;;;5113373;28;20106;-45
2021/09/23 02:07:41;;;;;;;7.47;4.97;;;11.00;99.90;;;;;;5112873;28;20456;-48
2021/09/23 02:10:07;;;;;;;8.23;4.88;;;10.90;99.90;;;;;;5113285;28;20020;-45
2021/09/23 02:12:32;;;;;;;6.40;4.72;;;10.90;99.90;;;;;;5113204;28;20030;-45
2021/09/23 02:14:58;;;;;;;7.30;4.88;;;10.90;99.90;;;;;;5113480;28;20032;-45
2021/09/23 02:17:24;;;;;;;6.32;4.90;;;10.80;99.90;;;;;;5113247;28;20569;-45
2021/09/23 02:19:50;;;;;;;8.25;4.70;;;10.80;99.90;;;;;;5113347;28;20412;-45
2021/09/23 02:22:16;;;;;;;8.73;5.63;;;10.80;99.90;;;;;;5112945;28;20027;-45
2021/09/23 02:24:42;;;;;;;9.10;5.30;;;10.80;99.90;;;;;;5112999;28;20020;-48
2021/09/23 02:27:08;;;;;;;8.38;5.75;;;10.80;99.90;;;;;;5112516;28;20098;-49
2021/09/23 02:29:35;;;;;;;6.82;5.25;;;10.80;99.90;;;;;;5112384;28;20096;-48
2021/09/23 02:32:02;;;;;;;13.00;5.75;;;10.80;99.90;;;;;;5112542;28;20361;-46
2021/09/23 02:34:28;;;;;;;8.27;6.28;;;10.60;99.90;;;;;;5112399;28;20019;-47
2021/09/23 02:36:54;;;;;;;9.43;5.78;;;10.60;99.90;;;;;;5112270;28;20096;-49
2021/09/23 02:39:19;;;;;;;10.93;5.35;;;10.50;99.90;;;;;;5111535;28;20472;-48
2021/09/23 02:41:45;;;;;;;7.95;5.82;;;10.50;99.90;;;;;;5112170;28;20020;-47
2021/09/23 02:44:10;;;;;;;9.07;6.32;;;10.50;99.90;;;;;;5111985;28;20403;-45
2021/09/23 02:46:36;;;;;;;6.75;6.00;;;10.40;99.90;;;;;;5112094;28;20024;-46
2021/09/23 02:49:01;;;;;;;6.75;5.63;;;10.40;99.90;;;;;;5112736;28;20023;-45
2021/09/23 02:51:27;;;;;;;8.27;5.70;;;10.40;99.90;;;;;;5112167;28;20024;-45
2021/09/23 02:53:52;;;;;;;7.00;5.60;;;10.30;99.90;;;;;;5111961;28;20023;-46
2021/09/23 02:56:18;;;;;;;7.32;5.50;;;10.30;99.90;;;;;;5111956;28;20028;-46
2021/09/23 02:58:47;;;;;;;7.55;5.75;;;10.40;99.90;;;;;;5093418;28;20023;-46
2021/09/23 03:01:12;;;;;;;6.70;5.05;;;10.30;99.90;;;;;;5111512;28;20019;-48
2021/09/23 03:03:38;;;;;;;7.65;4.97;;;10.30;99.90;;;;;;5111609;28;20077;-50
2021/09/23 03:06:03;;;;;;;5.32;4.82;;;10.30;99.90;;;;;;5111804;28;20393;-49
2021/09/23 03:08:29;;;;;;;8.77;6.35;;;10.30;99.90;;;;;;5111453;28;20023;-48
2021/09/23 03:10:54;;;;;;;7.53;6.78;;;10.30;99.90;;;;;;5111613;28;20023;-48
2021/09/23 03:13:20;;;;;;;7.07;5.78;;;10.30;99.90;;;;;;5111466;28;20027;-48
2021/09/23 03:15:46;;;;;;;7.57;5.03;;;10.30;99.90;;;;;;5111588;28;20061;-46
2021/09/23 03:18:11;;;;;;;8.38;4.90;;;10.20;99.90;;;;;;5111318;28;20330;-48
2021/09/23 03:20:37;;;;;;;8.85;5.80;;;10.20;99.90;;;;;;5111489;28;20042;-47
2021/09/23 03:23:03;;;;;;;15.68;7.25;;;10.20;99.90;;;;;;5111385;28;20434;-48
2021/09/23 03:25:30;;;;;;;9.75;7.57;;;10.20;99.90;;;;;;5111385;28;20034;-51
2021/09/23 03:27:55;;;;;;;8.10;7.30;;;10.20;99.90;;;;;;5111115;28;20392;-47
2021/09/23 03:30:21;;;;;;;11.05;8.30;;;10.20;99.90;;;;;;5111316;28;20031;-48
2021/09/23 03:32:47;;;;;;;10.73;7.82;;;10.20;99.90;;;;;;5111202;28;20114;-45
2021/09/23 03:35:12;;;;;;;8.13;7.05;;;10.20;99.90;;;;;;5111211;28;20073;-49
2021/09/23 03:37:38;;;;;;;13.02;7.22;;;10.20;99.90;;;;;;5111197;28;20136;-46
2021/09/23 03:40:05;;;;;;;7.43;6.60;;;10.10;99.90;;;;;;5110678;28;20438;-50
2021/09/23 03:42:31;;;;;;;9.15;7.07;;;10.10;99.90;;;;;;5110944;28;20663;-45
2021/09/23 03:44:56;;;;;;;6.85;6.03;;;10.00;99.90;;;;;;5111221;28;20111;-46
2021/09/23 03:47:22;;;;;;;6.30;5.63;;;10.00;99.90;;;;;;5110731;28;20103;-47
2021/09/23 03:49:47;;;;;;;6.95;5.95;;;10.00;99.90;;;;;;5111122;28;20070;-46
2021/09/23 03:52:13;;;;;;;7.63;5.88;;;10.00;99.90;;;;;;5111175;28;20494;-47
2021/09/23 03:54:39;;;;;;;7.43;6.30;;;10.00;99.90;;;;;;5111036;28;20404;-45
2021/09/23 03:57:04;;;;;;;7.70;6.85;;;9.90;99.90;;;;;;5111074;28;20396;-46
2021/09/23 03:59:30;;;;;;;7.53;6.32;;;10.00;99.90;;;;;;5110724;28;20020;-46
2021/09/23 04:01:55;;;;;;;7.57;6.55;;;10.00;99.90;;;;;;5110986;28;20068;-47
2021/09/23 04:04:21;;;;;;;8.45;6.32;;;9.90;99.90;;;;;;5110695;28;20051;-45
2021/09/23 04:06:46;;;;;;;8.20;6.30;;;9.90;99.90;;;;;;5111100;28;20020;-45
2021/09/23 04:09:13;;;;;;;6.60;5.82;;;9.90;99.90;;;;;;5110567;28;20046;-45
2021/09/23 04:11:40;;;;;;;6.25;5.47;;;9.90;99.90;;;;;;5111797;28;20034;-45
2021/09/23 04:14:06;;;;;;;6.45;5.47;;;9.90;99.90;;;;;;5114892;28;20041;-46
2021/09/23 04:16:33;;;;;;;6.72;6.03;;;9.80;99.90;;;;;;5115180;28;20024;-45
2021/09/23 04:18:59;;;;;;;7.47;6.60;;;9.90;99.90;;;;;;5114988;28;20027;-45
2021/09/23 04:21:25;;;;;;;10.20;6.97;;;9.80;99.90;;;;;;5115133;28;20023;-46
2021/09/23 04:23:51;;;;;;;11.98;8.02;;;9.90;99.90;;;;;;5114699;28;20122;-45
2021/09/23 04:26:17;;;;;;;7.82;6.20;;;9.90;99.90;;;;;;5114887;28;20055;-47
2021/09/23 04:28:42;;;;;;;7.65;6.70;;;9.90;99.90;;;;;;5114940;28;20028;-47
2021/09/23 04:31:08;;;;;;;10.55;7.05;;;10.00;99.90;;;;;;5114775;28;20508;-45
2021/09/23 04:33:34;;;;;;;10.82;7.07;;;9.90;99.90;;;;;;5096404;28;20030;-45
2021/09/23 04:35:59;;;;;;;9.60;6.85;;;9.90;99.90;;;;;;5114601;28;20031;-46
2021/09/23 04:38:25;;;;;;;7.57;6.07;;;9.90;99.90;;;;;;5114445;28;20031;-47
2021/09/23 04:40:51;;;;;;;12.48;6.00;;;9.90;99.90;;;;;;5114754;28;20309;-44
2021/09/23 04:43:17;;;;;;;9.77;6.35;;;9.90;99.90;;;;;;5114428;28;20343;-45
2021/09/23 04:45:42;;;;;;;10.80;7.78;;;9.90;99.90;;;;;;5114485;28;20102;-45
2021/09/23 04:48:08;;;;;;;8.43;6.32;;;9.90;99.90;;;;;;5095928;28;20030;-47
2021/09/23 04:50:34;;;;;;;10.18;7.60;;;9.80;99.90;;;;;;5114306;28;20023;-47
2021/09/23 04:53:00;;;;;;;8.10;6.60;;;9.80;99.90;;;;;;5114016;28;20019;-45
2021/09/23 04:55:27;;;;;;;8.77;6.45;;;9.80;99.90;;;;;;5114293;28;20028;-46
2021/09/23 04:57:52;;;;;;;10.38;6.70;;;9.80;99.90;;;;;;5114269;28;20028;-45
2021/09/23 05:00:18;;;;;;;12.55;7.28;;;9.80;99.90;;;;;;5114385;28;20500;-46
2021/09/23 05:02:45;;;;;;;12.00;6.75;;;9.80;99.90;;;;;;5114050;28;20027;-46
2021/09/23 05:05:11;;;;;;;8.63;6.72;;;9.70;99.90;;;;;;5114086;28;20434;-47
2021/09/23 05:07:36;;;;;;;11.77;6.68;;;9.70;99.90;;;;;;5113803;28;20020;-50
2021/09/23 05:10:02;;;;;;;7.40;6.28;;;9.70;99.90;;;;;;5114139;28;20035;-45
2021/09/23 05:12:27;;;;;;;12.40;6.53;;;9.70;99.90;;;;;;5114068;28;20064;-45
2021/09/23 05:14:53;;;;;;;12.57;6.80;;;9.60;99.90;;;;;;5114110;28;20107;-46
2021/09/23 05:17:18;;;;;;;13.95;7.60;;;9.60;99.90;;;;;;5114067;28;20480;-45
2021/09/23 05:19:44;;;;;;;13.20;6.30;;;9.60;99.90;;;;;;5114128;28;20032;-47
2021/09/23 05:22:09;;;;;;;6.40;5.60;;;9.60;99.90;;;;;;5113876;28;20553;-45
2021/09/23 05:24:35;;;;;;;5.70;5.03;;;9.60;99.90;;;;;;5113671;28;20069;-44
2021/09/23 05:27:00;;;;;;;11.35;5.53;;;9.60;99.90;;;;;;5113998;28;20067;-45
2021/09/23 05:29:26;;;;;;;10.15;5.40;;;9.60;99.90;;;;;;5113586;28;20024;-47
2021/09/23 05:31:52;;;;;;;6.93;5.70;;;9.60;99.90;;;;;;5113620;28;20027;-48
2021/09/23 05:34:17;;;;;;;10.05;5.93;;;9.60;99.90;;;;;;5113815;28;20038;-48
2021/09/23 05:36:43;;;;;;;9.50;6.15;;;9.60;99.90;;;;;;5113567;28;20049;-47
2021/09/23 05:39:09;;;;;;;7.88;5.00;;;9.70;99.90;;;;;;5113270;28;20040;-46
2021/09/23 05:41:35;;;;;;;8.75;5.50;;;9.70;99.90;;;;;;5113115;28;20027;-47
2021/09/23 05:44:00;;;;;;;6.63;5.05;;;9.70;99.90;;;;;;5113154;28;20024;-45
2021/09/23 05:46:27;;;;;;;8.65;5.00;;;9.70;99.90;;;;;;5113401;28;20476;-51
2021/09/23 05:48:53;;;;;;;10.43;5.60;;;9.70;99.90;;;;;;5113098;28;20027;-47
2021/09/23 05:51:24;;;;;;;6.65;5.57;;;9.70;99.90;;;;;;5113991;28;20023;-43
2021/09/23 05:53:50;;;;;;;6.18;5.13;;;9.70;99.90;;;;;;5113128;28;20047;-45
2021/09/23 05:56:16;;;;;;;6.70;4.75;;;9.70;99.90;;;;;;5113262;28;20401;-45
2021/09/23 05:58:41;;;;;;;10.23;5.75;;;9.70;99.90;;;;;;5112760;28;20111;-47
2021/09/23 06:01:07;;;;;;;7.53;4.90;;;9.70;99.90;;;;;;5113102;28;20020;-45
2021/09/23 06:03:33;;;;;;;5.55;4.93;;;9.80;99.90;;;;;;5112807;28;20019;-50
2021/09/23 06:05:58;;;;;;;9.77;5.50;;;9.80;99.90;;;;;;5112917;28;20023;-48
2021/09/23 06:08:24;;;;;;;7.97;6.03;;;9.70;99.90;;;;;;5112713;28;20028;-48
2021/09/23 06:10:49;;;;;;;8.43;5.80;;;9.70;99.90;;;;;;5113006;28;20436;-45
2021/09/23 06:13:14;;;;;;;9.25;5.55;;;9.70;99.90;;;;;;5112738;28;20039;-47
2021/09/23 06:15:41;;;;;;;9.82;5.15;;;9.80;99.90;;;;;;5094561;28;20028;-46
2021/09/23 06:18:06;;;;;;;8.02;5.78;;;9.90;99.90;;;;;;5112469;28;20024;-47
2021/09/23 06:20:32;;;;;;;7.63;5.28;;;9.90;99.90;;;;;;5112690;28;20068;-45
2021/09/23 06:22:58;;;;;;;7.90;5.75;;;10.00;99.90;;;;;;5112593;28;20097;-48
2021/09/23 06:25:24;;;;;;;6.15;5.40;;;10.10;99.90;;;;;;5112637;28;20485;-45
2021/09/23 06:27:49;;;;;;;7.30;5.45;;;10.10;99.90;;;;;;5112205;28;20492;-50
2021/09/23 06:30:17;;;;;;;13.82;6.72;;;10.20;99.90;;;;;;5112387;28;20473;-48
2021/09/23 06:32:43;;;;;;;8.18;6.38;;;10.20;99.90;;;;;;5112225;28;20019;-45
2021/09/23 06:35:09;;;;;;;7.07;5.93;;;10.30;99.90;;;;;;5111653;28;20356;-46
2021/09/23 06:37:34;;;;;;;7.57;6.10;;;10.40;99.90;;;;;;5112531;28;20032;-46
2021/09/23 06:40:00;;;;;;;7.28;5.35;;;10.40;99.90;;;;;;5111788;28;20030;-45
2021/09/23 06:42:25;;;;;;;9.32;6.28;;;10.50;99.90;;;;;;5111979;28;20032;-47
2021/09/23 06:44:51;;;;;;;8.80;6.25;;;10.60;99.90;;;;;;5112166;28;20604;-47
2021/09/23 06:47:16;;;;;;;13.00;5.90;;;10.70;99.90;;;;;;5093452;28;20054;-47
2021/09/23 06:49:42;;;;;;;7.95;5.80;;;10.80;99.90;;;;;;5112042;28;20043;-47
2021/09/23 06:52:08;;;;;;;7.30;5.65;;;10.90;99.90;;;;;;5111890;28;20020;-46
2021/09/23 06:54:34;;;;;;;10.82;7.32;;;11.00;99.90;;;;;;5111978;28;20038;-47
2021/09/23 06:56:59;;;;;;;16.60;7.93;;;11.20;99.90;;;;;;5111723;28;20080;-46
2021/09/23 06:59:25;;;;;;;9.40;7.72;;;11.40;99.90;;;;;;5111496;28;20034;-48
2021/09/23 07:01:51;;;;;;;10.23;6.93;;;11.60;99.90;;;;;;5112075;28;20480;-48
2021/09/23 07:04:17;;;;;;;14.50;7.15;;;11.70;99.90;;;;;;5111700;28;20027;-51
2021/09/23 07:06:42;;;;;;;7.78;6.53;;;12.00;99.90;;;;;;5111662;28;20050;-48
2021/09/23 07:09:08;;;;;;;7.20;6.38;;;12.20;99.90;;;;;;5111376;28;20020;-48
2021/09/23 07:11:34;;;;;;;9.70;6.78;;;12.40;99.90;;;;;;5111509;28;20048;-47
2021/09/23 07:14:00;;;;;;;7.70;6.72;;;12.60;99.90;;;;;;5111631;28;20028;-45
2021/09/23 07:16:26;;;;;;;13.93;6.32;;;12.80;99.90;;;;;;5111514;28;20028;-47
2021/09/23 07:18:51;;;;;;;10.27;6.43;;;13.00;99.90;;;;;;5111216;28;20036;-46
2021/09/23 07:21:17;;;;;;;9.45;6.90;;;13.20;99.90;;;;;;5111466;28;20027;-49
2021/09/23 07:23:42;;;;;;;10.18;7.07;;;13.30;99.90;;;;;;5111266;28;20038;-46
2021/09/23 07:26:08;;;;;;;8.00;6.72;;;13.40;99.90;;;;;;5111417;28;20015;-45
2021/09/23 07:28:34;;;;;;;12.10;6.53;;;13.60;99.90;;;;;;5111301;28;20047;-49
2021/09/23 07:30:59;;;;;;;8.18;6.88;;;13.90;99.90;;;;;;5111582;28;20114;-47
2021/09/23 07:33:25;;;;;;;9.82;6.40;;;13.90;99.90;;;;;;5111127;28;20028;-45
2021/09/23 07:35:51;;;;;;;18.15;8.15;;;13.90;99.90;;;;;;5111198;28;20027;-45
2021/09/23 07:38:16;;;;;;;11.18;6.90;;;13.80;99.90;;;;;;5111009;28;20030;-47
2021/09/23 07:40:42;;;;;;;15.68;7.57;;;13.80;99.90;;;;;;5110696;28;20106;-48
2021/09/23 07:43:08;;;;;;;13.63;9.13;;;13.70;99.90;;;;;;5110900;28;20047;-47
2021/09/23 07:45:34;;;;;;;14.07;7.97;;;13.60;99.90;;;;;;5111038;28;20027;-45
2021/09/23 07:47:59;;;;;;;14.45;8.35;;;13.50;99.90;;;;;;5110554;28;20393;-47
2021/09/23 07:50:25;;;;;;;12.02;9.30;;;13.40;99.90;;;;;;5111105;28;20027;-45
2021/09/23 07:52:50;;;;;;;10.35;8.20;;;13.30;99.90;;;;;;5111063;28;20049;-47
2021/09/23 07:55:16;;;;;;;13.20;8.52;;;13.30;99.90;;;;;;5111184;28;20096;-51
2021/09/23 07:57:42;;;;;;;18.40;9.48;;;13.30;99.90;;;;;;5110910;28;20023;-47
2021/09/23 08:00:08;;;;;;;10.05;8.27;;;13.20;99.90;;;;;;5110942;28;20023;-46
2021/09/23 08:02:33;;;;;;;10.65;8.27;;;13.20;99.90;;;;;;5110696;28;20065;-47
2021/09/23 08:04:59;;;;;;;10.55;8.20;;;13.10;99.90;;;;;;5110928;28;20493;-49
2021/09/23 08:07:24;;;;;;;9.70;8.50;;;13.00;99.90;;;;;;5110751;28;20396;-46
2021/09/23 08:09:50;;;;;;;15.15;10.05;;;13.00;99.90;;;;;;5110976;28;20473;-46
2021/09/23 08:12:16;;;;;;;11.30;9.20;;;13.00;99.90;;;;;;5110854;28;20028;-48
2021/09/23 08:14:41;;;;;;;19.40;9.57;;;13.00;99.90;;;;;;5111202;28;20034;-47
2021/09/23 08:17:07;;;;;;;12.95;9.50;;;13.00;99.90;;;;;;5111311;28;20035;-46
2021/09/23 08:19:35;;;;;;;12.27;9.38;;;13.10;99.90;;;;;;5110778;28;20427;-48
2021/09/23 08:22:02;;;;;;;14.07;10.98;;;13.10;99.90;;;;;;5110874;28;20430;-47
2021/09/23 08:24:27;;;;;;;13.48;11.25;;;13.30;99.90;;;;;;5110580;28;20024;-46
2021/09/23 08:26:53;;;;;;;16.33;11.27;;;13.30;99.90;;;;;;5110946;28;20031;-49
2021/09/23 08:29:18;;;;;;;15.85;11.45;;;13.40;99.90;;;;;;5092606;28;20083;-48
2021/09/23 08:31:44;;;;;;;18.40;12.02;;;13.50;99.90;;;;;;5110744;28;20048;-49
2021/09/23 08:34:09;;;;;;;26.33;11.30;;;13.60;99.90;;;;;;5110520;28;20031;-48
2021/09/23 08:36:35;;;;;;;15.85;11.95;;;13.60;99.90;;;;;;5110709;28;20503;-47
2021/09/23 08:39:00;;;;;;;16.35;11.85;;;13.70;99.90;;;;;;5110974;28;20535;-50
2021/09/23 08:41:26;;;;;;;14.68;11.05;;;13.80;99.90;;;;;;5109916;28;20511;-43
2021/09/23 08:43:51;;;;;;;19.58;11.90;;;13.90;99.90;;;;;;5109702;28;20038;-46
2021/09/23 08:46:18;;;;;;;17.60;11.10;;;14.10;99.90;;;;;;5110344;28;20024;-47
2021/09/23 08:48:43;;;;;;;14.80;10.15;;;14.10;99.90;;;;;;5091994;28;20437;-46
2021/09/23 08:51:09;;;;;;;23.08;10.50;;;14.20;99.90;;;;;;5110696;28;20055;-45
2021/09/23 08:53:35;;;;;;;17.02;9.45;;;14.90;99.90;;;;;;5111120;28;20114;-47
2021/09/23 08:56:02;;;;;;;17.60;9.63;;;16.10;99.90;;;;;;5110700;28;20043;-45
2021/09/23 08:58:27;;;;;;;13.52;8.32;;;17.70;99.90;;;;;;5110873;28;20027;-47
2021/09/23 09:01:10;;;;;;;9.60;7.93;;;19.10;98.70;;;;;;5114014;28;20072;-45
2021/09/23 09:03:37;;;;;;;11.18;7.55;;;20.10;97.00;;;;;;5114139;28;20066;-45
2021/09/23 09:06:05;;;;;;;12.25;7.53;;;20.60;95.50;;;;;;5114159;28;20080;-49
2021/09/23 09:08:33;;;;;;;16.88;7.22;;;21.10;93.90;;;;;;5114115;28;20410;-46
2021/09/23 09:11:01;;;;;;;13.88;7.03;;;21.70;92.80;;;;;;5114048;28;20120;-45
2021/09/23 09:13:32;;;;;;;9.10;6.45;;;22.10;93.30;;;;;;5113415;28;20019;-50
2021/09/23 09:16:05;;;;;;;8.07;6.95;;;22.60;91.40;;;;;;5113798;28;20486;-45
2021/09/23 09:18:31;;;;;;;7.57;6.30;;;22.80;90.90;;;;;;5113223;28;20039;-46
2021/09/23 09:21:04;;;;;;;9.77;5.57;;;23.00;90.50;;;;;;5095402;28;20035;-49
2021/09/23 09:23:47;;;;;;;8.70;6.03;;;23.50;90.60;;;;;;5113745;28;20524;-49
2021/09/23 09:26:37;;;;;;;10.80;5.80;;;24.40;88.50;;;;;;5113600;28;20024;-49
2021/09/23 09:29:05;;;;;;;7.80;5.35;;;25.00;86.10;;;;;;5113123;28;20024;-51
2021/09/23 09:31:31;;;;;;;9.45;5.65;;;25.10;83.90;;;;;;5113428;28;20472;-46
2021/09/23 09:33:59;;;;;;;4.55;4.13;;;24.90;83.70;;;;;;5113302;28;20446;-50
2021/09/23 09:36:49;;;;;;;8.55;5.00;;;24.70;84.00;;;;;;5113525;28;20023;-49
2021/09/23 09:39:17;;;;;;;8.10;5.85;;;24.30;83.30;;;;;;5113260;28;20016;-52
2021/09/23 09:41:53;;;;;;;7.10;4.95;;;23.60;84.40;;;;;;5113334;28;20081;-48
2021/09/23 09:44:20;;;;;;;7.95;5.40;;;22.90;86.20;;;;;;5113228;28;20027;-49
2021/09/23 09:46:50;;;;;;;6.85;4.43;;;22.50;88.40;;;;;;5113317;28;20081;-51
2021/09/23 09:49:19;;;;;;;6.95;4.80;;;22.50;89.20;;;;;;5113062;28;20016;-49
2021/09/23 09:51:47;;;;;;;9.80;4.93;;;22.60;89.20;;;;;;5113452;28;20104;-53
2021/09/23 09:54:16;;;;;;;7.53;4.47;;;22.70;89.50;;;;;;5113392;28;20116;-55
2021/09/23 09:56:47;;;;;;;9.13;4.68;;;22.90;89.90;;;;;;5113220;28;20056;-52
2021/09/23 09:59:17;;;;;;;8.73;5.05;;;23.00;89.50;;;;;;5112839;28;20023;-52
2021/09/23 10:01:46;;;;;;;8.27;4.15;;;23.00;87.20;;;;;;5113047;28;20034;-51
2021/09/23 10:04:13;;;;;;;6.10;4.18;;;22.90;87.40;;;;;;5113128;28;20030;-50
2021/09/23 10:06:40;;;;;;;10.43;4.90;;;23.10;88.30;;;;;;5112846;28;20028;-51
2021/09/23 10:09:07;;;;;;;5.35;4.43;;;23.20;87.30;;;;;;5112506;28;20110;-51
2021/09/23 10:11:33;;;;;;;10.75;4.90;;;23.10;87.40;;;;;;5112432;28;20024;-52
2021/09/23 10:14:01;;;;;;;6.65;4.20;;;22.70;87.90;;;;;;5112190;28;20024;-51
2021/09/23 10:16:27;;;;;;;8.63;4.82;;;22.70;89.20;;;;;;5112930;28;20027;-53
2021/09/23 10:18:55;;;;;;;9.45;4.32;;;22.70;89.30;;;;;;5112402;28;20028;-48
2021/09/23 10:21:21;;;;;;;8.52;5.05;;;22.60;88.90;;;;;;5094384;28;20115;-49
2021/09/23 10:23:47;;;;;;;6.90;4.55;;;22.50;88.90;;;;;;5112157;28;20111;-48
2021/09/23 10:26:15;;;;;;;7.00;4.35;;;22.40;90.20;;;;;;5112622;28;20463;-48
2021/09/23 10:28:45;;;;;;;13.25;4.40;;;22.40;90.00;;;;;;5112337;28;20016;-52
2021/09/23 10:31:16;;;;;;;9.52;5.15;;;22.30;90.10;;;;;;5112566;28;20424;-53
2021/09/23 10:33:42;;;;;;;8.73;5.18;;;22.20;89.30;;;;;;5112196;28;20059;-50
2021/09/23 10:36:09;;;;;;;12.18;5.70;;;21.90;90.30;;;;;;5112023;28;20031;-49
2021/09/23 10:38:35;;;;;;;10.02;4.68;;;21.80;90.40;;;;;;5112209;28;20438;-51
2021/09/23 10:41:01;;;;;;;8.70;4.70;;;21.50;91.00;;;;;;5112329;28;20084;-51
2021/09/23 10:43:29;;;;;;;8.73;4.90;;;21.50;91.50;;;;;;5112128;28;20492;-51
2021/09/23 10:45:55;;;;;;;8.15;5.55;;;21.40;91.50;;;;;;5112069;28;20059;-49
2021/09/23 10:48:22;;;;;;;10.02;5.55;;;21.20;91.50;;;;;;5111701;28;20077;-52
2021/09/23 10:50:49;;;;;;;6.38;5.05;;;21.20;92.00;;;;;;5111757;28;20015;-52
2021/09/23 10:53:14;;;;;;;7.80;5.35;;;20.90;92.30;;;;;;5112140;28;20031;-53
2021/09/23 10:55:42;;;;;;;9.02;4.97;;;20.90;92.70;;;;;;5111984;28;20392;-49
2021/09/23 10:58:10;;;;;;;6.30;5.45;;;20.90;92.60;;;;;;5111455;28;20019;-55
2021/09/23 11:00:37;;;;;;;5.68;4.82;;;20.90;92.70;;;;;;5111843;28;20030;-51
2021/09/23 11:03:04;;;;;;;10.30;5.30;;;20.90;92.60;;;;;;5093514;28;20031;-52
2021/09/23 11:05:30;;;;;;;10.13;5.55;;;20.90;92.80;;;;;;5111511;28;20387;-50
2021/09/23 11:07:58;;;;;;;7.50;5.03;;;20.90;93.10;;;;;;5111549;28;20099;-48
2021/09/23 11:10:24;;;;;;;6.18;4.80;;;20.80;92.70;;;;;;5111665;28;20051;-50
2021/09/23 11:12:53;;;;;;;7.90;5.43;;;20.70;92.80;;;;;;5111390;28;20081;-47
2021/09/23 11:15:21;;;;;;;13.43;5.30;;;20.50;92.80;;;;;;5111214;28;20031;-50
2021/09/23 11:17:48;;;;;;;10.38;5.65;;;20.20;93.30;;;;;;5111020;28;20084;-49
2021/09/23 11:20:21;;;;;;;14.48;5.85;;;20.20;93.60;;;;;;5111775;28;20034;-48
2021/09/23 11:22:53;;;;;;;11.90;6.65;;;20.20;93.70;;;;;;5110263;28;20043;-53
2021/09/23 11:25:24;;;;;;;11.90;6.72;;;20.20;93.50;;;;;;5110803;28;20118;-46
2021/09/23 11:27:51;;;;;;;9.73;6.35;;;20.20;93.70;;;;;;5110850;28;20034;-48
2021/09/23 11:30:19;;;;;;;15.48;6.28;;;20.10;93.80;;;;;;5110814;28;20092;-50
2021/09/23 11:32:56;;;;;;;6.72;5.25;;;20.10;94.10;;;;;;5111010;28;20027;-50
2021/09/23 11:35:24;;;;;;;9.93;5.75;;;20.10;94.30;;;;;;5111177;28;20031;-52
2021/09/23 11:37:51;;;;;;;13.35;5.95;;;20.10;94.20;;;;;;5111000;28;20438;-49
2021/09/23 11:40:25;;;;;;;7.05;6.28;;;20.10;94.30;;;;;;5092602;28;20456;-51
2021/09/23 11:42:51;;;;;;;16.98;5.63;;;20.10;94.30;;;;;;5111133;28;20055;-47
2021/09/23 11:45:20;;;;;;;8.63;5.78;;;20.20;94.50;;;;;;5111436;28;20039;-53
2021/09/23 11:47:49;;;;;;;10.82;6.35;;;20.20;94.30;;;;;;5110578;28;20110;-50
2021/09/23 11:50:31;;;;;;;12.70;6.65;;;20.30;94.20;;;;;;5111141;28;20066;-48
2021/09/23 11:53:10;;;;;;;9.35;6.93;;;20.30;94.40;;;;;;5111244;28;20063;-50
2021/09/23 11:55:41;;;;;;;11.45;6.88;;;20.20;93.90;;;;;;5111450;28;20108;-50
2021/09/23 11:58:09;;;;;;;12.70;7.30;;;20.30;94.20;;;;;;5110625;28;20366;-46
2021/09/23 12:00:41;;;;;;;12.75;6.65;;;20.30;94.40;;;;;;5110872;28;20037;-49
2021/09/23 12:03:07;;;;;;;13.10;5.05;;;20.30;94.50;;;;;;5111109;28;20055;-52
2021/09/23 12:05:33;;;;;;;8.38;6.22;;;20.30;94.50;;;;;;5111103;28;20019;-52
2021/09/23 12:08:13;;;;;;;10.80;7.75;;;20.40;94.30;;;;;;5111076;28;20164;-50
2021/09/23 12:11:03;;;;;;;11.95;6.97;;;20.40;94.10;;;;;;5111254;28;20156;-51
2021/09/23 12:13:37;;;;;;;7.55;5.35;;;20.40;94.20;;;;;;5110948;28;20073;-49
2021/09/23 12:16:06;;;;;;;13.73;6.28;;;20.40;94.70;;;;;;5111333;28;20077;-48
2021/09/23 12:18:32;;;;;;;8.35;5.47;;;20.50;94.10;;;;;;5110337;28;20396;-50
2021/09/23 12:21:09;;;;;;;6.55;4.60;;;20.60;94.70;;;;;;5111063;28;20031;-47
2021/09/23 12:23:43;;;;;;;11.98;5.55;;;20.60;94.00;;;;;;5110831;28;20088;-47
2021/09/23 12:26:25;;;;;;;10.30;4.22;;;20.60;93.90;;;;;;5110620;28;20053;-49
2021/09/23 12:29:07;;;;;;;8.35;4.93;;;20.70;94.10;;;;;;5092816;28;20023;-46
2021/09/23 12:31:42;;;;;;;9.32;5.15;;;20.70;94.10;;;;;;5110793;28;20055;-47
2021/09/23 12:34:18;;;;;;;13.55;4.20;;;20.80;94.00;;;;;;5112458;28;20370;-46
2021/09/23 12:36:47;;;;;;;9.88;3.08;;;20.80;94.10;;;;;;5114821;28;20499;-49
2021/09/23 12:39:21;;;;;;;11.98;3.30;;;21.00;94.20;;;;;;5127578;22;20071;-46
2021/09/23 12:41:52;;;;;;;3.17;2.88;;;21.00;94.10;;;;;;5114071;28;20020;-49
2021/09/23 12:44:29;;;;;;;7.03;3.50;;;21.10;93.10;;;;;;5108203;28;20062;-52
2021/09/23 12:47:16;;;;;;;5.70;3.45;;;21.10;93.40;;;;;;5092369;28;20039;-51